Alice Springs Airport

Airport
ICAO code: 
YBAS
IATA Code: 
ASP
Summary
ICAO Region: 
APAC
Territory: 
Location: 
, Northern Territory
Serving: 
Alice Springs
Elevation: 
1789 ft
Coordinates: 
Aerial View: 
23° 48' 24.012" S, 133° 54' 7.992" E
Metar
Observation
YBAS 071200Z AUTO 33009KT 9999 // BKN100 26/17 Q1014
Station
Alice Springs Aerodrome
Date/Time
2021-12-07 12:00:00
Wind direction
330°
Wind speed
09 kts
Lowest cloud amount
broken clouds
Temperature
26°C
Dew point
17°C
Humidity
57%
QNH
1014 hPa
Weather condition
n/a

Runways

Designator Length Width Surface Rops
17/35 1133 18 ASP Yes/Yes
12/30 2438 45 ASP Yes/Yes
Airport map: 
Aerial View: 

SKYbrary Partners:

Safety knowledge contributed by: